Budapest Bridge — VRIZ5 — position and weather

sailwx.info

Track history (hours):
 
Tides and Currents Weather Stations Pressure Air Temp Water Temp Dewpoint Dewpoint Depression Visibility Wind Speed Wind Dir Waves Ship Positions

Budapest Bridge

Last reported at 2015-Apr-17 16:30 UTC. Time now 2015-Apr-19 14:08 UTC.
Position N 01°18' E 104°22'.

Length 268 m; draft 12.2 m.

Type: Cargo ship. MMSI: 477434200.

Date/timePositionNaut miles runAvg speedWind from/ knotsBaromVisibWave heightAir tempDewpointWater temp
2015-Apr-17 16:30N 01°18' E 104°22'1920.0
2015-Apr-17 15:33N 01°15' E 104°03'1211.8
2015-Apr-17 14:33N 01°15' E 103°51'1 0.8
2015-Apr-17 13:32N 01°16' E 103°51'0 0.0
2015-Apr-17 12:29N 01°16' E 103°51'0 0.0
2015-Apr-17 11:32N 01°16' E 103°51'0 0.0
2015-Apr-17 09:32N 01°16' E 103°51'0 0.0
2015-Apr-17 08:32N 01°16' E 103°51'0 0.0
2015-Apr-17 07:32N 01°16' E 103°51'0 0.0
2015-Apr-17 05:29N 01°16' E 103°51'0 0.0
2015-Apr-17 04:20N 01°16' E 103°51'0 0.0
2015-Apr-17 03:32N 01°16' E 103°51'0 0.0
2015-Apr-17 02:14N 01°16' E 103°51'0 0.0
2015-Apr-17 01:29N 01°16' E 103°51'0 0.0
2015-Apr-17 00:32N 01°16' E 103°51'0 0.0
2015-Apr-16 23:32N 01°16' E 103°51'0 0.0
2015-Apr-16 22:32N 01°16' E 103°51'0 0.0
2015-Apr-16 21:26N 01°16' E 103°51'0 0.0
2015-Apr-16 20:20N 01°16' E 103°51'0 0.0
2015-Apr-16 19:29N 01°16' E 103°51'0 0.0
2015-Apr-16 18:20N 01°16' E 103°51'0 0.0
2015-Apr-16 17:33N 01°16' E 103°51'4 3.8
2015-Apr-16 16:32N 01°12' E 103°51'6 6.1
2015-Apr-16 15:31N 01°17' E 103°47'0 0.0
2015-Apr-16 14:31N 01°17' E 103°47'0 0.0
2015-Apr-16 13:31N 01°17' E 103°47'0 0.0
2015-Apr-16 12:31N 01°17' E 103°47'0 0.0
2015-Apr-16 11:31N 01°17' E 103°47'0 0.0
2015-Apr-16 10:31N 01°17' E 103°47'0 0.0
2015-Apr-16 09:31N 01°17' E 103°47'0 0.0
2015-Apr-16 08:31N 01°17' E 103°47'0 0.0
2015-Apr-16 07:31N 01°17' E 103°47'0 0.0
2015-Apr-16 06:31N 01°17' E 103°47'0 0.0
2015-Apr-16 05:31N 01°17' E 103°47'0 0.0
2015-Apr-16 04:31N 01°17' E 103°47'0 0.0
2015-Apr-16 03:31N 01°17' E 103°47'0 0.0
2015-Apr-16 02:31N 01°17' E 103°47'1 1.3
2015-Apr-16 01:33N 01°15' E 103°46'2 1.7
2015-Apr-16 00:33N 01°14' E 103°47'7 7.3
2015-Apr-15 23:32N 01°15' E 103°55'1 1.3
2015-Apr-15 22:29N 01°17' E 103°55'0 0.0
2015-Apr-15 21:29N 01°17' E 103°55'0 0.0
2015-Apr-15 20:29N 01°17' E 103°55'0 0.0
2015-Apr-15 19:29N 01°17' E 103°55'0 0.0
2015-Apr-15 18:32N 01°17' E 103°55'0 0.0
2015-Apr-15 17:29N 01°17' E 103°55'0 0.0
2015-Apr-15 16:33N 01°17' E 103°55'0 0.0
2015-Apr-15 15:32N 01°17' E 103°55'0 0.0
2015-Apr-15 14:32N 01°17' E 103°55'0 0.0
2015-Apr-15 13:32N 01°17' E 103°55'0 0.0
2015-Apr-15 12:32N 01°17' E 103°55'0 0.0
2015-Apr-15 11:29N 01°17' E 103°55'0 0.0
2015-Apr-15 10:29N 01°17' E 103°55'0 0.0
2015-Apr-15 09:32N 01°17' E 103°55'8 8.2
2015-Apr-15 08:33N 01°12' E 103°48'5 4.5
2015-Apr-15 07:23N 01°17' E 103°46'0 0.0
2015-Apr-15 06:29N 01°17' E 103°46'0 0.0
2015-Apr-15 05:32N 01°17' E 103°46'0 0.0
2015-Apr-15 04:26N 01°17' E 103°46'0 0.0
2015-Apr-15 03:29N 01°17' E 103°46'0 0.0
2015-Apr-15 02:29N 01°17' E 103°46'0 0.0
2015-Apr-15 01:33N 01°17' E 103°46'0 0.0
2015-Apr-15 00:29N 01°17' E 103°46'0 0.0
2015-Apr-14 23:29N 01°17' E 103°46'0 0.0
2015-Apr-14 22:32N 01°17' E 103°46'0 0.0
2015-Apr-14 21:32N 01°17' E 103°46'0 0.0
2015-Apr-14 20:23N 01°17' E 103°46'0 0.0
2015-Apr-14 19:29N 01°17' E 103°46'0 0.0
2015-Apr-14 18:26N 01°17' E 103°46'0 0.0
2015-Apr-14 17:29N 01°17' E 103°46'0 0.0
2015-Apr-14 16:29N 01°17' E 103°46'0 0.0
2015-Apr-14 15:32N 01°17' E 103°46'0 0.0
2015-Apr-14 14:29N 01°17' E 103°46'0 0.0
2015-Apr-14 13:29N 01°17' E 103°46'3 0.6
2015-Apr-14 08:25N 01°14' E 103°47'0 0.2
2015-Apr-14 07:28N 01°14' E 103°47'3 0.6
2015-Apr-14 02:33N 01°15' E 103°44'12 8.6
2015-Apr-14 01:07N 01°11' E 103°32'5111.1
2015-Apr-13 20:30N 01°38' E 102°48'1212.0
2015-Apr-13 19:32N 01°43' E 102°38'1312.3
2015-Apr-13 18:31N 01°49' E 102°27'1312.3
2015-Apr-13 17:29N 01°54' E 102°15'1212.4
2015-Apr-13 16:32N 02°01' E 102°06'  
Track history (hours):
 
Tides and Currents Weather Stations Pressure Air Temp Water Temp Dewpoint Dewpoint Depression Visibility Wind Speed Wind Dir Waves Ship Positions

Budapest Bridge

Last reported at 2015-Apr-17 16:30 UTC. Time now 2015-Apr-19 14:08 UTC.
Position N 01°18' E 104°22'.

Length 268 m; draft 12.2 m.

Type: Cargo ship. MMSI: 477434200.

Date/timePositionNaut miles runAvg speedWind from/ knotsBaromVisibWave heightAir tempDewpointWater temp
2015-Apr-17 16:30N 01°18' E 104°22'1920.0
2015-Apr-17 15:33N 01°15' E 104°03'1211.8
2015-Apr-17 14:33N 01°15' E 103°51'1 0.8
2015-Apr-17 13:32N 01°16' E 103°51'0 0.0
2015-Apr-17 12:29N 01°16' E 103°51'0 0.0
2015-Apr-17 11:32N 01°16' E 103°51'0 0.0
2015-Apr-17 09:32N 01°16' E 103°51'0 0.0
2015-Apr-17 08:32N 01°16' E 103°51'0 0.0
2015-Apr-17 07:32N 01°16' E 103°51'0 0.0
2015-Apr-17 05:29N 01°16' E 103°51'0 0.0
2015-Apr-17 04:20N 01°16' E 103°51'0 0.0
2015-Apr-17 03:32N 01°16' E 103°51'0 0.0
2015-Apr-17 02:14N 01°16' E 103°51'0 0.0
2015-Apr-17 01:29N 01°16' E 103°51'0 0.0
2015-Apr-17 00:32N 01°16' E 103°51'0 0.0
2015-Apr-16 23:32N 01°16' E 103°51'0 0.0
2015-Apr-16 22:32N 01°16' E 103°51'0 0.0
2015-Apr-16 21:26N 01°16' E 103°51'0 0.0
2015-Apr-16 20:20N 01°16' E 103°51'0 0.0
2015-Apr-16 19:29N 01°16' E 103°51'0 0.0
2015-Apr-16 18:20N 01°16' E 103°51'0 0.0
2015-Apr-16 17:33N 01°16' E 103°51'4 3.8
2015-Apr-16 16:32N 01°12' E 103°51'6 6.1
2015-Apr-16 15:31N 01°17' E 103°47'0 0.0
2015-Apr-16 14:31N 01°17' E 103°47'0 0.0
2015-Apr-16 13:31N 01°17' E 103°47'0 0.0
2015-Apr-16 12:31N 01°17' E 103°47'0 0.0
2015-Apr-16 11:31N 01°17' E 103°47'0 0.0
2015-Apr-16 10:31N 01°17' E 103°47'0 0.0
2015-Apr-16 09:31N 01°17' E 103°47'0 0.0
2015-Apr-16 08:31N 01°17' E 103°47'0 0.0
2015-Apr-16 07:31N 01°17' E 103°47'0 0.0
2015-Apr-16 06:31N 01°17' E 103°47'0 0.0
2015-Apr-16 05:31N 01°17' E 103°47'0 0.0
2015-Apr-16 04:31N 01°17' E 103°47'0 0.0
2015-Apr-16 03:31N 01°17' E 103°47'0 0.0
2015-Apr-16 02:31N 01°17' E 103°47'1 1.3
2015-Apr-16 01:33N 01°15' E 103°46'2 1.7
2015-Apr-16 00:33N 01°14' E 103°47'7 7.3
2015-Apr-15 23:32N 01°15' E 103°55'1 1.3
2015-Apr-15 22:29N 01°17' E 103°55'0 0.0
2015-Apr-15 21:29N 01°17' E 103°55'0 0.0
2015-Apr-15 20:29N 01°17' E 103°55'0 0.0
2015-Apr-15 19:29N 01°17' E 103°55'0 0.0
2015-Apr-15 18:32N 01°17' E 103°55'0 0.0
2015-Apr-15 17:29N 01°17' E 103°55'0 0.0
2015-Apr-15 16:33N 01°17' E 103°55'0 0.0
2015-Apr-15 15:32N 01°17' E 103°55'0 0.0
2015-Apr-15 14:32N 01°17' E 103°55'0 0.0
2015-Apr-15 13:32N 01°17' E 103°55'0 0.0
2015-Apr-15 12:32N 01°17' E 103°55'0 0.0
2015-Apr-15 11:29N 01°17' E 103°55'0 0.0
2015-Apr-15 10:29N 01°17' E 103°55'0 0.0
2015-Apr-15 09:32N 01°17' E 103°55'8 8.2
2015-Apr-15 08:33N 01°12' E 103°48'5 4.5
2015-Apr-15 07:23N 01°17' E 103°46'0 0.0
2015-Apr-15 06:29N 01°17' E 103°46'0 0.0
2015-Apr-15 05:32N 01°17' E 103°46'0 0.0
2015-Apr-15 04:26N 01°17' E 103°46'0 0.0
2015-Apr-15 03:29N 01°17' E 103°46'0 0.0
2015-Apr-15 02:29N 01°17' E 103°46'0 0.0
2015-Apr-15 01:33N 01°17' E 103°46'0 0.0
2015-Apr-15 00:29N 01°17' E 103°46'0 0.0
2015-Apr-14 23:29N 01°17' E 103°46'0 0.0
2015-Apr-14 22:32N 01°17' E 103°46'0 0.0
2015-Apr-14 21:32N 01°17' E 103°46'0 0.0
2015-Apr-14 20:23N 01°17' E 103°46'0 0.0
2015-Apr-14 19:29N 01°17' E 103°46'0 0.0
2015-Apr-14 18:26N 01°17' E 103°46'0 0.0
2015-Apr-14 17:29N 01°17' E 103°46'0 0.0
2015-Apr-14 16:29N 01°17' E 103°46'0 0.0
2015-Apr-14 15:32N 01°17' E 103°46'0 0.0
2015-Apr-14 14:29N 01°17' E 103°46'0 0.0
2015-Apr-14 13:29N 01°17' E 103°46'3 0.6
2015-Apr-14 08:25N 01°14' E 103°47'0 0.2
2015-Apr-14 07:28N 01°14' E 103°47'3 0.6
2015-Apr-14 02:33N 01°15' E 103°44'12 8.6
2015-Apr-14 01:07N 01°11' E 103°32'5111.1
2015-Apr-13 20:30N 01°38' E 102°48'1212.0
2015-Apr-13 19:32N 01°43' E 102°38'1312.3
2015-Apr-13 18:31N 01°49' E 102°27'1312.3
2015-Apr-13 17:29N 01°54' E 102°15'1212.4
2015-Apr-13 16:32N 02°01' E 102°06'  

Dump ship's entire track history